createdAt,value
2022-10-25T00:01:26.265Z,1.60
2022-10-25T00:03:30.682Z,1.80
2022-10-25T00:05:33.725Z,1.90
2022-10-25T00:07:36.741Z,1.30
2022-10-25T00:09:39.678Z,1.40
2022-10-25T00:11:43.334Z,1.50
2022-10-25T00:13:46.354Z,1.50
2022-10-25T00:15:49.588Z,1.37
2022-10-25T00:17:52.871Z,1.80
2022-10-25T00:19:57.203Z,1.50
2022-10-25T00:22:00.547Z,1.50
2022-10-25T00:24:04.787Z,1.50
2022-10-25T00:26:09.279Z,2.70
2022-10-25T00:28:12.489Z,3.80
2022-10-25T00:30:16.045Z,1.53
2022-10-25T00:32:19.049Z,3.67
2022-10-25T00:34:22.106Z,1.67
2022-10-25T00:36:27.784Z,1.90
2022-10-25T00:38:31.591Z,1.17
2022-10-25T00:40:35.138Z,2.30
2022-10-25T00:42:38.171Z,2.10
2022-10-25T00:44:53.540Z,2.30
2022-10-25T00:46:56.738Z,2.80
2022-10-25T00:49:03.540Z,2.10
2022-10-25T00:51:07.076Z,2.10
2022-10-25T00:53:15.174Z,2.00
2022-10-25T00:55:20.429Z,1.73
2022-10-25T00:57:27.408Z,1.97
2022-10-25T00:59:30.857Z,1.40
2022-10-25T01:01:34.113Z,1.60
2022-10-25T01:03:38.481Z,1.47
2022-10-25T01:05:41.772Z,1.90
2022-10-25T01:07:45.750Z,1.90
2022-10-25T01:09:51.210Z,1.80
2022-10-25T01:11:54.461Z,1.53
2022-10-25T01:13:57.754Z,2.20
2022-10-25T01:16:06.989Z,1.80
2022-10-25T01:18:15.595Z,2.00
2022-10-25T01:20:48.755Z,2.10
2022-10-25T01:22:55.546Z,1.73
2022-10-25T01:25:25.396Z,2.40
2022-10-25T01:27:47.149Z,2.00
2022-10-25T01:30:14.592Z,2.20
2022-10-25T01:32:22.401Z,2.27
2022-10-25T01:34:28.002Z,2.30
2022-10-25T01:36:38.138Z,2.30
2022-10-25T01:38:45.901Z,1.83
2022-10-25T01:40:54.159Z,1.90
2022-10-25T01:43:02.264Z,2.10
2022-10-25T01:45:09.915Z,2.10
2022-10-25T01:47:15.122Z,2.23
2022-10-25T01:49:24.998Z,2.70
2022-10-25T01:51:29.020Z,3.00
2022-10-25T01:53:32.027Z,3.40
2022-10-25T01:55:41.393Z,2.60
2022-10-25T01:57:59.684Z,2.00
2022-10-25T02:00:09.299Z,2.10
2022-10-25T02:02:23.669Z,2.00
2022-10-25T02:04:34.920Z,2.30
2022-10-25T02:06:44.093Z,2.23
2022-10-25T02:08:49.634Z,1.60
2022-10-25T02:10:57.066Z,2.10
2022-10-25T02:13:03.953Z,2.80
2022-10-25T02:15:11.315Z,2.20
2022-10-25T02:17:18.781Z,1.90
2022-10-25T02:19:25.132Z,2.57
2022-10-25T02:21:32.024Z,2.30
2022-10-25T02:23:35.923Z,2.40
2022-10-25T02:25:41.919Z,2.10
2022-10-25T02:27:46.021Z,2.27
2022-10-25T02:29:49.685Z,2.23
2022-10-25T02:31:52.831Z,2.37
2022-10-25T02:33:56.106Z,2.60
2022-10-25T02:36:09.818Z,2.10
2022-10-25T02:38:14.102Z,2.60
2022-10-25T02:40:17.303Z,1.80
2022-10-25T02:46:15.515Z,2.60
2022-10-25T02:48:18.593Z,2.70
2022-10-25T02:50:21.557Z,2.23
2022-10-25T02:52:24.568Z,2.33
2022-10-25T02:54:28.977Z,2.23
2022-10-25T02:56:32.022Z,1.80
2022-10-25T02:58:38.080Z,2.10
2022-10-25T03:00:41.267Z,2.23
2022-10-25T03:02:44.634Z,2.63
2022-10-25T03:04:47.979Z,2.20
2022-10-25T03:06:50.982Z,2.10
2022-10-25T03:08:54.023Z,2.20
2022-10-25T03:10:58.532Z,2.60
2022-10-25T03:13:01.624Z,2.57
2022-10-25T03:15:05.027Z,2.13
2022-10-25T03:17:08.151Z,2.00
2022-10-25T03:19:11.191Z,2.40
2022-10-25T03:21:14.167Z,2.60
2022-10-25T03:23:17.779Z,2.40
2022-10-25T03:25:20.858Z,2.23
2022-10-25T03:27:25.245Z,2.07
2022-10-25T03:29:28.423Z,2.60
2022-10-25T03:31:31.414Z,2.00
2022-10-25T03:33:34.404Z,2.00
2022-10-25T03:35:37.592Z,2.77
2022-10-25T03:37:40.605Z,2.10
2022-10-25T03:39:43.571Z,2.23
2022-10-25T03:41:46.508Z,2.70
2022-10-25T03:43:50.885Z,2.87
2022-10-25T03:45:53.851Z,3.37
2022-10-25T03:47:56.869Z,3.33
2022-10-25T03:49:59.851Z,3.47
2022-10-25T03:52:05.084Z,2.77
2022-10-25T03:54:08.188Z,2.60
2022-10-25T03:56:11.214Z,3.40
2022-10-25T03:58:14.242Z,3.53
2022-10-25T04:00:18.875Z,3.17
2022-10-25T04:02:21.915Z,2.93
2022-10-25T04:04:24.943Z,3.03
2022-10-25T04:06:27.906Z,2.80
2022-10-25T04:08:30.917Z,2.33
2022-10-25T04:10:34.011Z,2.77
2022-10-25T04:12:37.037Z,3.20
2022-10-25T04:14:40.102Z,3.30
2022-10-25T04:16:44.493Z,3.40
2022-10-25T04:18:47.709Z,3.50
2022-10-25T04:20:50.659Z,2.50
2022-10-25T04:22:57.225Z,2.27
2022-10-25T04:25:00.236Z,3.17
2022-10-25T04:27:03.350Z,2.30
2022-10-25T04:29:13.538Z,2.73
2022-10-25T04:31:16.870Z,2.80
2022-10-25T04:33:21.710Z,2.80
2022-10-25T04:35:27.602Z,2.63
2022-10-25T04:37:30.693Z,2.43
2022-10-25T04:39:33.642Z,2.70
2022-10-25T04:41:36.670Z,3.33
2022-10-25T04:43:39.703Z,5.87
2022-10-25T04:45:42.749Z,6.97
2022-10-25T04:47:45.751Z,6.37
2022-10-25T04:49:50.082Z,4.97
2022-10-25T04:51:52.974Z,3.50
2022-10-25T04:53:56.194Z,3.87
2022-10-25T04:55:59.681Z,5.20
2022-10-25T04:58:02.628Z,4.10
2022-10-25T05:00:06.354Z,4.10
2022-10-25T05:02:09.356Z,5.23
2022-10-25T05:04:12.343Z,5.33
2022-10-25T05:06:19.083Z,5.77
2022-10-25T05:08:22.105Z,6.23
2022-10-25T05:10:25.205Z,6.30
2022-10-25T05:12:28.224Z,7.50
2022-10-25T05:14:31.215Z,8.00
2022-10-25T05:16:35.185Z,5.40
2022-10-25T05:18:38.193Z,5.20
2022-10-25T05:20:41.244Z,4.60
2022-10-25T05:22:46.017Z,3.90
2022-10-25T05:24:49.175Z,4.50
2022-10-25T05:26:52.175Z,5.27
2022-10-25T05:28:56.893Z,4.63
2022-10-25T05:31:04.221Z,4.97
2022-10-25T05:33:07.236Z,4.33
2022-10-25T05:35:10.375Z,5.50
2022-10-25T05:37:13.326Z,4.73
2022-10-25T05:39:17.765Z,4.90
2022-10-25T05:41:20.767Z,3.83
2022-10-25T05:43:23.958Z,4.13
2022-10-25T05:45:27.005Z,3.70
2022-10-25T05:47:30.041Z,3.93
2022-10-25T05:49:34.172Z,3.60
2022-10-25T05:51:37.683Z,4.03
2022-10-25T05:53:44.467Z,4.10
2022-10-25T05:55:48.789Z,3.50
2022-10-25T05:57:52.680Z,4.10
2022-10-25T05:59:55.892Z,2.80
2022-10-25T06:01:59.018Z,3.70
2022-10-25T06:04:02.080Z,3.20
2022-10-25T06:06:06.919Z,3.77
2022-10-25T06:08:09.916Z,3.67
2022-10-25T06:10:12.851Z,3.42
2022-10-25T06:12:17.197Z,3.10
2022-10-25T06:14:20.171Z,3.13
2022-10-25T06:16:23.576Z,2.73
2022-10-25T06:18:26.542Z,5.43
2022-10-25T06:20:29.671Z,3.23
2022-10-25T06:22:32.772Z,3.43
2022-10-25T06:24:35.855Z,4.57
2022-10-25T06:26:38.921Z,3.50
2022-10-25T06:28:43.623Z,3.10
2022-10-25T06:30:46.542Z,4.03
2022-10-25T06:32:49.847Z,4.47
2022-10-25T06:34:52.993Z,4.00
2022-10-25T06:36:55.916Z,4.00
2022-10-25T06:39:05.269Z,4.47
2022-10-25T06:41:13.723Z,4.00
2022-10-25T06:43:16.696Z,3.80
2022-10-25T06:45:21.023Z,3.40
2022-10-25T06:47:24.025Z,5.27
2022-10-25T06:49:30.580Z,4.50
2022-10-25T06:51:34.445Z,4.40
2022-10-25T06:53:37.872Z,4.80
2022-10-25T06:55:42.369Z,3.97
2022-10-25T06:57:45.437Z,3.67
2022-10-25T06:59:48.537Z,3.40
2022-10-25T07:01:53.456Z,3.73
2022-10-25T07:03:56.715Z,3.10
2022-10-25T07:06:00.650Z,5.80
2022-10-25T07:08:03.743Z,4.00
2022-10-25T07:10:07.367Z,4.20
2022-10-25T07:12:12.721Z,4.33
2022-10-25T07:14:16.081Z,4.23
2022-10-25T07:16:20.875Z,4.13
2022-10-25T07:18:25.367Z,3.60
2022-10-25T07:20:30.955Z,3.80
2022-10-25T07:22:34.143Z,3.37
2022-10-25T07:24:37.141Z,3.87
2022-10-25T07:26:41.787Z,3.83
2022-10-25T07:28:46.318Z,4.37
2022-10-25T07:30:49.550Z,4.00
2022-10-25T07:32:52.618Z,3.73
2022-10-25T07:37:00.983Z,3.90
2022-10-25T07:39:04.281Z,3.97
2022-10-25T07:41:07.778Z,4.50
2022-10-25T07:43:11.162Z,4.30
2022-10-25T07:45:16.231Z,4.63
2022-10-25T07:47:21.846Z,3.90
2022-10-25T07:49:24.974Z,4.20
2022-10-25T07:51:29.579Z,4.30
2022-10-25T07:53:32.618Z,4.20
2022-10-25T07:55:35.642Z,4.03
2022-10-25T07:57:38.797Z,4.00
2022-10-25T07:59:41.755Z,3.60
2022-10-25T08:01:44.813Z,4.10
2022-10-25T08:03:47.952Z,4.60
2022-10-25T08:05:50.957Z,3.90
2022-10-25T08:07:55.256Z,4.40
2022-10-25T08:09:58.262Z,4.27
2022-10-25T08:12:01.239Z,4.10
2022-10-25T08:14:04.276Z,4.27
2022-10-25T08:16:11.240Z,4.60
2022-10-25T08:18:14.231Z,5.23
2022-10-25T08:20:17.363Z,5.03
2022-10-25T08:22:20.406Z,4.80
2022-10-25T08:24:24.814Z,4.50
2022-10-25T08:26:30.145Z,4.30
2022-10-25T08:28:35.298Z,4.37
2022-10-25T08:30:38.278Z,4.27
2022-10-25T08:32:41.320Z,4.00
2022-10-25T08:34:44.365Z,3.60
2022-10-25T08:36:49.674Z,3.30
2022-10-25T08:38:52.689Z,4.10
2022-10-25T08:41:03.261Z,4.00
2022-10-25T08:43:11.175Z,3.90
2022-10-25T08:45:19.885Z,4.10
2022-10-25T08:47:27.110Z,3.83
2022-10-25T08:49:34.647Z,3.73
2022-10-25T08:51:39.842Z,3.30
2022-10-25T08:53:47.813Z,3.50
2022-10-25T08:56:15.264Z,3.00
2022-10-25T08:58:18.698Z,3.00
2022-10-25T09:00:24.204Z,3.37
2022-10-25T09:02:34.653Z,3.07
2022-10-25T09:04:37.823Z,3.13
2022-10-25T09:06:43.275Z,2.80
2022-10-25T09:08:59.622Z,2.80
2022-10-25T09:11:07.933Z,2.87
2022-10-25T09:13:19.286Z,2.40
2022-10-25T09:15:33.306Z,3.10
2022-10-25T09:17:43.039Z,2.70
2022-10-25T09:19:57.858Z,2.67
2022-10-25T09:22:02.290Z,2.40
2022-10-25T09:24:11.712Z,2.30
2022-10-25T09:26:19.265Z,2.27
2022-10-25T09:28:26.777Z,2.60
2022-10-25T09:30:31.745Z,2.20
2022-10-25T09:32:38.791Z,2.73
2022-10-25T09:34:41.912Z,2.87
2022-10-25T09:36:47.012Z,2.60
2022-10-25T09:38:53.219Z,3.50
2022-10-25T09:40:58.925Z,2.10
2022-10-25T09:45:24.142Z,1.97
2022-10-25T09:47:41.453Z,2.67
2022-10-25T09:49:52.097Z,2.40
2022-10-25T09:52:00.703Z,2.40
2022-10-25T09:54:11.941Z,2.50
2022-10-25T09:56:17.201Z,2.30
2022-10-25T09:58:22.165Z,2.70
2022-10-25T10:00:26.849Z,2.20
2022-10-25T10:02:29.876Z,2.33
2022-10-25T10:04:36.273Z,1.80
2022-10-25T10:06:40.920Z,2.17
2022-10-25T10:08:49.080Z,2.50
2022-10-25T10:10:57.398Z,2.13
2022-10-25T10:13:05.020Z,1.80
2022-10-25T10:15:14.145Z,1.73
2022-10-25T10:17:21.291Z,2.23
2022-10-25T10:19:29.936Z,1.77
2022-10-25T10:21:42.960Z,2.00
2022-10-25T10:23:50.703Z,1.70
2022-10-25T10:25:53.878Z,1.60
2022-10-25T10:27:58.186Z,1.70
2022-10-25T10:30:03.240Z,1.90
2022-10-25T10:32:10.180Z,1.67
2022-10-25T10:34:28.532Z,1.73
2022-10-25T10:36:33.584Z,2.00
2022-10-25T10:38:39.361Z,1.30
2022-10-25T10:40:44.001Z,1.80
2022-10-25T10:42:49.886Z,2.03
2022-10-25T10:45:16.614Z,1.60
2022-10-25T10:47:22.538Z,1.80
2022-10-25T10:49:36.143Z,1.60
2022-10-25T10:51:45.031Z,2.00
2022-10-25T10:53:48.456Z,1.40
2022-10-25T10:55:52.936Z,1.70
2022-10-25T10:57:57.377Z,1.80
2022-10-25T11:00:01.488Z,1.90
2022-10-25T11:02:24.117Z,1.60
2022-10-25T11:04:28.704Z,1.70
2022-10-25T11:06:33.254Z,2.10
2022-10-25T11:08:36.240Z,1.70
2022-10-25T11:10:40.224Z,1.40
2022-10-25T11:12:43.738Z,1.50
2022-10-25T11:14:46.840Z,1.70
2022-10-25T11:16:54.533Z,1.40
2022-10-25T11:19:10.134Z,1.70
2022-10-25T11:21:22.504Z,1.57
2022-10-25T11:23:28.914Z,1.80
2022-10-25T11:25:35.299Z,1.60
2022-10-25T11:27:48.156Z,1.60
2022-10-25T11:30:01.121Z,1.80
2022-10-25T11:32:18.736Z,2.10
2022-10-25T11:34:27.124Z,2.00
2022-10-25T11:36:52.676Z,2.20
2022-10-25T11:39:04.445Z,2.10
2022-10-25T11:41:17.369Z,2.10
2022-10-25T11:43:35.357Z,1.73
2022-10-25T11:45:42.610Z,1.70
2022-10-25T11:47:52.780Z,1.83
2022-10-25T11:50:02.351Z,1.67
2022-10-25T11:52:28.545Z,1.57
2022-10-25T11:54:36.786Z,1.93
2022-10-25T11:56:45.951Z,2.10
2022-10-25T11:58:55.259Z,1.60
2022-10-25T12:01:04.204Z,1.60
2022-10-25T12:03:20.533Z,1.90
2022-10-25T12:05:30.749Z,1.63
2022-10-25T12:07:38.606Z,1.47
2022-10-25T12:09:47.767Z,1.60
2022-10-25T12:12:01.675Z,1.70
2022-10-25T12:14:07.307Z,2.00
2022-10-25T12:16:12.323Z,1.60
2022-10-25T12:18:20.582Z,1.70
2022-10-25T12:20:27.892Z,1.63
2022-10-25T12:22:38.216Z,1.80
2022-10-25T12:24:46.466Z,2.07
2022-10-25T12:26:50.987Z,2.00
2022-10-25T12:28:54.123Z,2.20
2022-10-25T12:31:01.004Z,2.07
2022-10-25T12:33:12.205Z,1.83
2022-10-25T12:35:21.516Z,1.90
2022-10-25T12:37:29.849Z,1.90
2022-10-25T12:39:40.639Z,1.90
2022-10-25T12:41:45.080Z,1.70
2022-10-25T12:44:00.226Z,1.57
2022-10-25T12:46:37.003Z,1.90
2022-10-25T12:49:03.170Z,1.90
2022-10-25T12:51:19.122Z,2.03
2022-10-25T12:53:46.701Z,1.70
2022-10-25T12:55:57.047Z,1.77
2022-10-25T12:58:09.867Z,1.93
2022-10-25T13:00:14.842Z,1.60
2022-10-25T13:02:55.458Z,1.87
2022-10-25T13:05:24.236Z,1.67
2022-10-25T13:07:27.764Z,1.83
2022-10-25T13:09:33.070Z,1.43
2022-10-25T13:11:39.586Z,2.00
2022-10-25T13:13:48.790Z,1.87
2022-10-25T13:15:52.824Z,1.50
2022-10-25T13:18:05.726Z,2.10
2022-10-25T13:20:46.398Z,1.70
2022-10-25T13:22:52.396Z,2.10
2022-10-25T13:24:56.003Z,2.00
2022-10-25T13:27:22.125Z,1.77
2022-10-25T13:29:50.211Z,1.90
2022-10-25T13:31:59.880Z,1.63
2022-10-25T13:34:30.899Z,1.50
2022-10-25T13:36:47.491Z,1.80
2022-10-25T13:39:04.541Z,1.80
2022-10-25T13:41:13.482Z,2.37
2022-10-25T13:43:20.697Z,2.00
2022-10-25T13:45:33.393Z,2.10
2022-10-25T13:47:39.010Z,2.10
2022-10-25T13:49:43.824Z,1.90
2022-10-25T13:51:47.200Z,1.70
2022-10-25T13:53:52.680Z,1.83
2022-10-25T13:56:01.146Z,1.93
2022-10-25T13:58:57.423Z,1.70
2022-10-25T14:01:55.940Z,1.80
2022-10-25T14:04:08.712Z,2.00
2022-10-25T14:06:23.801Z,2.10
2022-10-25T14:08:28.940Z,2.10
2022-10-25T14:10:36.476Z,1.80
2022-10-25T14:12:41.089Z,2.03
2022-10-25T14:14:48.383Z,1.70
2022-10-25T14:17:10.450Z,2.27
2022-10-25T14:19:16.657Z,1.60
2022-10-25T14:21:20.552Z,1.60
2022-10-25T14:23:25.367Z,1.80
2022-10-25T14:25:34.301Z,1.63
2022-10-25T14:27:38.380Z,1.40
2022-10-25T14:29:41.362Z,1.60
2022-10-25T14:31:44.523Z,1.70
2022-10-25T14:33:53.636Z,1.90
2022-10-25T14:35:58.576Z,1.67
2022-10-25T14:38:01.972Z,1.40
2022-10-25T14:40:16.427Z,2.13
2022-10-25T14:42:19.545Z,1.97
2022-10-25T14:44:25.337Z,1.60
2022-10-25T14:46:30.269Z,1.97
2022-10-25T14:48:33.679Z,1.67
2022-10-25T14:50:39.915Z,1.67
2022-10-25T14:52:45.025Z,1.93
2022-10-25T14:54:54.750Z,2.03
2022-10-25T14:57:00.010Z,1.70
2022-10-25T14:59:04.238Z,1.90
2022-10-25T15:01:07.969Z,1.83
2022-10-25T15:03:12.662Z,1.97
2022-10-25T15:05:20.222Z,1.57
2022-10-25T15:07:29.094Z,2.10
2022-10-25T15:09:48.699Z,1.90
2022-10-25T15:12:06.828Z,1.73
2022-10-25T15:14:17.006Z,1.83
2022-10-25T15:16:32.341Z,2.03
2022-10-25T15:18:38.154Z,2.43
2022-10-25T15:20:41.576Z,2.60
2022-10-25T15:22:48.155Z,2.30
2022-10-25T15:24:51.440Z,2.23
2022-10-25T15:26:59.481Z,1.90
2022-10-25T15:29:02.952Z,2.07
2022-10-25T15:31:07.883Z,1.90
2022-10-25T15:33:14.638Z,2.10
2022-10-25T15:35:23.474Z,3.00
2022-10-25T15:37:27.789Z,2.33
2022-10-25T15:39:32.942Z,2.30
2022-10-25T15:41:36.553Z,2.00
2022-10-25T15:43:39.584Z,1.90
2022-10-25T15:45:42.897Z,2.27
2022-10-25T15:47:47.337Z,1.80
2022-10-25T15:49:52.676Z,1.70
2022-10-25T15:51:56.959Z,1.67
2022-10-25T15:54:00.220Z,1.80
2022-10-25T15:56:04.871Z,1.70
2022-10-25T15:58:09.898Z,2.10
2022-10-25T16:00:15.650Z,1.63
2022-10-25T16:02:22.026Z,2.00
2022-10-25T16:04:25.093Z,2.40
2022-10-25T16:06:28.069Z,2.13
2022-10-25T16:08:31.442Z,2.43
2022-10-25T16:10:34.825Z,2.00
2022-10-25T16:12:39.599Z,2.13
2022-10-25T16:14:42.700Z,1.90
2022-10-25T16:16:46.071Z,2.47
2022-10-25T16:18:49.094Z,2.23
2022-10-25T16:20:52.998Z,2.70
2022-10-25T16:22:56.783Z,2.83
2022-10-25T16:24:59.827Z,2.90
2022-10-25T16:27:02.975Z,2.53
2022-10-25T16:29:07.476Z,2.73
2022-10-25T16:31:10.430Z,2.50
2022-10-25T16:33:13.545Z,2.47
2022-10-25T16:35:18.787Z,2.50
2022-10-25T16:37:21.997Z,2.77
2022-10-25T16:39:25.052Z,2.43
2022-10-25T16:41:29.835Z,2.53
2022-10-25T16:43:33.820Z,2.50
2022-10-25T16:45:38.561Z,9.80
2022-10-25T16:47:41.685Z,11.13
2022-10-25T16:49:44.777Z,17.03
2022-10-25T16:51:48.782Z,6.60
2022-10-25T16:53:52.045Z,6.30
2022-10-25T16:55:56.105Z,10.30
2022-10-25T16:57:59.663Z,6.00
2022-10-25T17:00:02.763Z,5.90
2022-10-25T17:02:10.889Z,5.70
2022-10-25T17:04:14.498Z,5.20
2022-10-25T17:06:39.734Z,5.00
2022-10-25T17:08:40.922Z,5.07
2022-10-25T17:10:46.066Z,5.07
2022-10-25T17:12:50.665Z,4.67
2022-10-25T17:14:53.987Z,5.30
2022-10-25T17:17:02.232Z,4.90
2022-10-25T17:19:07.681Z,4.50
2022-10-25T17:21:12.745Z,4.83
2022-10-25T17:23:15.675Z,5.27
2022-10-25T17:25:18.694Z,5.03
2022-10-25T17:27:21.711Z,5.13
2022-10-25T17:29:24.738Z,6.57
2022-10-25T17:31:28.272Z,6.27
2022-10-25T17:33:32.726Z,5.63
2022-10-25T17:35:41.999Z,5.10
2022-10-25T17:37:47.130Z,5.90
2022-10-25T17:39:50.494Z,9.40
2022-10-25T17:41:53.503Z,13.50
2022-10-25T17:43:57.180Z,6.13
2022-10-25T17:46:01.244Z,6.23
2022-10-25T17:48:04.864Z,6.40
2022-10-25T17:50:08.405Z,6.20
2022-10-25T17:52:13.232Z,6.10
2022-10-25T17:54:16.968Z,6.23
2022-10-25T17:56:20.579Z,6.80
2022-10-25T17:58:24.050Z,7.23
2022-10-25T18:00:27.094Z,7.33
2022-10-25T18:02:30.232Z,7.63
2022-10-25T18:04:52.967Z,7.87
2022-10-25T18:06:56.524Z,7.63
2022-10-25T18:09:02.926Z,8.90
2022-10-25T18:11:09.746Z,12.20
2022-10-25T18:13:12.729Z,8.80
2022-10-25T18:15:15.971Z,7.97
2022-10-25T18:17:18.975Z,7.37
2022-10-25T18:19:22.709Z,5.63
2022-10-25T18:21:25.886Z,6.73
2022-10-25T18:23:28.885Z,6.80
2022-10-25T18:25:33.323Z,6.33
2022-10-25T18:27:36.393Z,13.20
2022-10-25T18:29:39.953Z,15.10
2022-10-25T18:31:42.967Z,10.87
2022-10-25T18:33:46.237Z,7.53
2022-10-25T18:35:49.320Z,11.00
2022-10-25T18:37:52.402Z,15.20
2022-10-25T18:39:55.529Z,15.47
2022-10-25T18:41:59.958Z,15.17
2022-10-25T18:44:03.482Z,13.33
2022-10-25T18:46:06.820Z,12.00
2022-10-25T18:48:09.847Z,12.53
2022-10-25T18:50:12.876Z,12.37
2022-10-25T18:52:15.964Z,11.30
2022-10-25T18:54:19.468Z,9.30
2022-10-25T18:56:23.791Z,9.90
2022-10-25T18:58:28.239Z,7.40
2022-10-25T19:00:31.489Z,9.30
2022-10-25T19:02:37.809Z,9.63
2022-10-25T19:04:44.452Z,8.00
2022-10-25T19:06:47.716Z,9.23
2022-10-25T19:08:50.769Z,9.90
2022-10-25T19:10:53.786Z,11.13
2022-10-25T19:12:56.767Z,12.80
2022-10-25T19:15:02.977Z,9.93
2022-10-25T19:17:06.069Z,8.73
2022-10-25T19:19:11.681Z,7.90
2022-10-25T19:21:17.090Z,9.07
2022-10-25T19:23:20.113Z,9.40
2022-10-25T19:25:24.025Z,10.70
2022-10-25T19:27:28.971Z,7.17
2022-10-25T19:29:33.290Z,7.27
2022-10-25T19:31:37.859Z,6.97
2022-10-25T19:33:41.207Z,6.77
2022-10-25T19:35:44.269Z,5.80
2022-10-25T19:37:48.030Z,5.50
2022-10-25T19:39:54.398Z,7.50
2022-10-25T19:42:00.281Z,8.60
2022-10-25T19:44:03.332Z,9.90
2022-10-25T19:46:07.880Z,7.20
2022-10-25T19:48:12.471Z,7.87
2022-10-25T19:50:15.520Z,7.90
2022-10-25T19:52:18.617Z,6.77
2022-10-25T19:54:22.743Z,7.10
2022-10-25T19:56:25.814Z,7.33
2022-10-25T19:58:29.496Z,7.67
2022-10-25T20:00:32.887Z,6.80
2022-10-25T20:02:36.205Z,6.57
2022-10-25T20:04:40.989Z,7.33
2022-10-25T20:06:44.232Z,7.77
2022-10-25T20:08:48.065Z,7.10
2022-10-25T20:10:52.121Z,8.10
2022-10-25T20:12:55.442Z,7.97
2022-10-25T20:14:58.765Z,7.57
2022-10-25T20:17:02.033Z,8.63
2022-10-25T20:19:05.439Z,8.33
2022-10-25T20:21:11.739Z,7.50
2022-10-25T20:23:14.925Z,6.60
2022-10-25T20:25:18.211Z,6.83
2022-10-25T20:27:21.277Z,6.60
2022-10-25T20:29:26.246Z,7.07
2022-10-25T20:31:33.072Z,8.07
2022-10-25T20:33:47.180Z,7.30
2022-10-25T20:36:06.875Z,8.13
2022-10-25T20:38:17.854Z,7.10
2022-10-25T20:40:26.143Z,7.40
2022-10-25T20:42:29.154Z,7.13
2022-10-25T20:44:32.191Z,5.77
2022-10-25T20:46:36.253Z,6.60
2022-10-25T20:48:39.280Z,15.80
2022-10-25T20:50:46.060Z,11.00
2022-10-25T20:53:09.206Z,9.00
2022-10-25T20:55:14.231Z,6.93
2022-10-25T20:57:17.238Z,7.33
2022-10-25T20:59:20.329Z,7.43
2022-10-25T21:01:23.440Z,6.50
2022-10-25T21:03:27.754Z,6.10
2022-10-25T21:05:31.509Z,6.90
2022-10-25T21:07:34.662Z,6.80
2022-10-25T21:09:37.708Z,6.70
2022-10-25T21:11:42.123Z,7.47
2022-10-25T21:13:45.232Z,8.27
2022-10-25T21:15:48.494Z,7.03
2022-10-25T21:17:51.683Z,6.80
2022-10-25T21:19:54.925Z,7.20
2022-10-25T21:21:58.134Z,7.20
2022-10-25T21:24:02.632Z,7.60
2022-10-25T21:26:07.675Z,6.47
2022-10-25T21:28:12.360Z,7.53
2022-10-25T21:30:15.797Z,7.23
2022-10-25T21:32:19.508Z,7.80
2022-10-25T21:34:22.534Z,7.17
2022-10-25T21:36:25.584Z,6.80
2022-10-25T21:38:28.533Z,6.67
2022-10-25T21:40:31.603Z,6.80
2022-10-25T21:42:34.868Z,5.80
2022-10-25T21:44:39.224Z,6.30
2022-10-25T21:46:42.632Z,7.43
2022-10-25T21:48:47.232Z,6.10
2022-10-25T21:50:55.042Z,6.37
2022-10-25T21:52:58.165Z,6.20
2022-10-25T21:55:01.363Z,6.50
2022-10-25T21:57:04.456Z,6.60
2022-10-25T21:59:07.728Z,7.20
2022-10-25T22:01:13.499Z,7.40
2022-10-25T22:03:16.788Z,7.10
2022-10-25T22:05:19.924Z,7.40
2022-10-25T22:07:23.391Z,6.83
2022-10-25T22:09:26.544Z,6.50
2022-10-25T22:11:31.967Z,7.13
2022-10-25T22:13:35.289Z,6.17
2022-10-25T22:15:38.306Z,6.50
2022-10-25T22:17:42.732Z,6.40
2022-10-25T22:19:45.690Z,6.97
2022-10-25T22:21:50.506Z,6.20
2022-10-25T22:23:53.666Z,6.30
2022-10-25T22:26:00.828Z,5.67
2022-10-25T22:28:03.860Z,6.30
2022-10-25T22:30:07.946Z,7.37
2022-10-25T22:32:10.892Z,6.60
2022-10-25T22:34:16.424Z,6.27
2022-10-25T22:36:21.595Z,5.93
2022-10-25T22:38:25.100Z,5.87
2022-10-25T22:40:28.124Z,6.00
2022-10-25T22:42:31.093Z,5.93
2022-10-25T22:44:34.067Z,6.03
2022-10-25T22:46:37.555Z,6.50
2022-10-25T22:48:42.220Z,6.20
2022-10-25T22:50:50.728Z,6.00
2022-10-25T22:52:53.802Z,6.27
2022-10-25T22:54:56.792Z,5.50
2022-10-25T22:56:59.819Z,5.43
2022-10-25T22:59:05.350Z,5.67
2022-10-25T23:01:10.403Z,5.37
2022-10-25T23:03:13.578Z,5.20
2022-10-25T23:05:16.732Z,5.53
2022-10-25T23:07:21.154Z,5.20
2022-10-25T23:09:24.222Z,5.63
2022-10-25T23:11:28.998Z,5.57
2022-10-25T23:13:32.959Z,5.43
2022-10-25T23:15:35.938Z,5.23
2022-10-25T23:17:39.011Z,5.23
2022-10-25T23:19:41.984Z,6.37
2022-10-25T23:21:45.090Z,5.07
2022-10-25T23:23:49.456Z,4.97
2022-10-25T23:25:52.965Z,5.13
2022-10-25T23:27:56.145Z,5.00
2022-10-25T23:29:59.137Z,5.60
2022-10-25T23:32:02.190Z,5.00
2022-10-25T23:34:05.167Z,5.20
2022-10-25T23:36:10.167Z,5.33
2022-10-25T23:38:13.677Z,5.20
2022-10-25T23:40:18.049Z,4.80
2022-10-25T23:42:21.155Z,5.37
2022-10-25T23:44:24.595Z,5.03
2022-10-25T23:46:27.628Z,4.70
2022-10-25T23:48:30.862Z,4.47
2022-10-25T23:50:33.972Z,4.97
2022-10-25T23:52:37.084Z,5.00
2022-10-25T23:54:40.041Z,5.23
2022-10-25T23:56:44.347Z,4.30
2022-10-25T23:58:50.365Z,5.30
